Utica, Ohio
Current Conditions -  °F | °C
As of 9:56 AM on Monday 22 Dec 2014 (Local Time) from K4I3 Reporting Station
Haze Haze  
Wind Chill: 28°   Ceiling: 4400
Heat Index: 28°   Visibility: 4mi
Dew Point: 27°   Wind: 3mph
Humidity: 93%   Direction: 70°ENE
Pressure: 30.06"   Gusts: NA
Location:  40.23°N, 82.45°W
Report Text: K4I3 221456Z AUTO 07003KT 4SM BR OVC044 M02/M03 A3006 RMK AO2
Loading
Personal Weather Stations






























Interactive Weather Map New forecast layout! Learn more

10-Day Weather Forecast

Advertisements
Track Severe Weather on mobile